In Rescue
 
Open Full Screen Window  High Contrast Mode
October 25, 2021 3:01 PM EDT
Present Weather: Light Rain
Weather Information
Wind Direction
  ---
Wind Speed
  00 kt (0 mph)
Wind Gust
  00 kt (0 mph)
Altimeter
29.65 in
Visibility
10 SM
Temperature
15° C
59° F
Dewpoint
12° C
54° F
Humidity
82%
1hr Rain Fall
00.01 in.
24hr Rain Fall
01.64 in.
Sky Condition
Overcast @ 3,200 ft
Scattered @ 2,200 ft
VFR

METAR KDLZ 251901Z AUTO 00000KT 10SM -RA SCT022 OVC032 15/12 A2965 RMK AO2 P0001

FAA Disclaimer: The data displayed is for advisory purposes only and is not to be used for flight planning or operations.